createdAt,value
2023-04-15T00:00:07.611Z,225.79
2023-04-15T00:01:07.593Z,225.96
2023-04-15T00:02:07.657Z,225.62
2023-04-15T00:03:07.753Z,225.03
2023-04-15T00:04:07.686Z,225.74
2023-04-15T00:05:07.481Z,225.03
2023-04-15T00:06:07.466Z,225.10
2023-04-15T00:07:07.444Z,223.32
2023-04-15T00:08:07.433Z,223.73
2023-04-15T00:09:07.408Z,224.43
2023-04-15T00:10:07.388Z,224.82
2023-04-15T00:11:07.386Z,225.13
2023-04-15T00:12:07.349Z,224.86
2023-04-15T00:13:07.321Z,224.41
2023-04-15T00:14:07.311Z,222.29
2023-04-15T00:15:07.275Z,223.33
2023-04-15T00:16:07.254Z,223.73
2023-04-15T00:17:07.223Z,224.94
2023-04-15T00:18:07.196Z,222.78
2023-04-15T00:19:07.174Z,223.58
2023-04-15T00:20:07.154Z,222.95
2023-04-15T00:21:07.144Z,224.64
2023-04-15T00:22:07.115Z,224.45
2023-04-15T00:23:07.088Z,224.33
2023-04-15T00:24:07.070Z,223.80
2023-04-15T00:25:07.047Z,223.27
2023-04-15T00:26:07.030Z,224.31
2023-04-15T00:27:07.000Z,223.88
2023-04-15T00:28:06.995Z,224.67
2023-04-15T00:29:06.969Z,224.33
2023-04-15T00:30:06.960Z,223.41
2023-04-15T00:31:06.975Z,223.51
2023-04-15T00:32:06.921Z,224.54
2023-04-15T00:33:06.908Z,224.05
2023-04-15T00:34:06.878Z,223.13
2023-04-15T00:35:06.849Z,224.81
2023-04-15T00:36:06.837Z,223.67
2023-04-15T00:37:06.809Z,224.05
2023-04-15T00:38:06.788Z,223.84
2023-04-15T00:39:06.781Z,224.19
2023-04-15T00:40:06.745Z,223.53
2023-04-15T00:41:06.720Z,223.30
2023-04-15T00:42:06.709Z,223.42
2023-04-15T00:43:06.679Z,224.36
2023-04-15T00:44:06.663Z,223.63
2023-04-15T00:45:06.624Z,224.12
2023-04-15T00:46:06.651Z,222.46
2023-04-15T00:47:06.595Z,223.70
2023-04-15T00:48:06.587Z,223.32
2023-04-15T00:49:06.549Z,224.07
2023-04-15T00:50:06.527Z,223.79
2023-04-15T00:51:06.520Z,224.13
2023-04-15T00:52:06.488Z,223.31
2023-04-15T00:53:06.508Z,223.08
2023-04-15T00:54:06.460Z,224.64
2023-04-15T00:55:06.468Z,223.24
2023-04-15T00:56:06.465Z,224.48
2023-04-15T00:57:06.440Z,223.68
2023-04-15T00:58:06.445Z,223.73
2023-04-15T00:59:06.507Z,222.86
2023-04-15T01:00:06.462Z,223.92
2023-04-15T01:01:06.537Z,223.17
2023-04-15T01:02:06.643Z,222.59
2023-04-15T01:03:06.608Z,223.53
2023-04-15T01:04:06.545Z,223.04
2023-04-15T01:05:06.466Z,223.27
2023-04-15T01:06:06.447Z,223.73
2023-04-15T01:07:06.422Z,223.33
2023-04-15T01:08:06.406Z,222.81
2023-04-15T01:09:06.388Z,223.25
2023-04-15T01:10:06.412Z,222.27
2023-04-15T01:11:06.326Z,222.41
2023-04-15T01:12:06.316Z,223.18
2023-04-15T01:13:06.297Z,223.25
2023-04-15T01:14:06.271Z,223.32
2023-04-15T01:15:06.248Z,223.69
2023-04-15T01:16:06.261Z,223.27
2023-04-15T01:17:06.198Z,223.16
2023-04-15T01:18:06.184Z,223.55
2023-04-15T01:19:06.172Z,222.83
2023-04-15T01:20:06.129Z,223.02
2023-04-15T01:21:06.100Z,222.54
2023-04-15T01:22:06.078Z,223.16
2023-04-15T01:23:06.054Z,222.54
2023-04-15T01:24:06.032Z,222.74
2023-04-15T01:25:06.007Z,223.46
2023-04-15T01:26:05.993Z,221.71
2023-04-15T01:27:05.967Z,223.04
2023-04-15T01:28:05.944Z,222.93
2023-04-15T01:29:05.931Z,222.74
2023-04-15T01:30:05.908Z,222.36
2023-04-15T01:31:05.944Z,222.54
2023-04-15T01:32:05.938Z,222.58
2023-04-15T01:33:05.861Z,222.32
2023-04-15T01:34:05.846Z,222.79
2023-04-15T01:35:05.830Z,222.66
2023-04-15T01:36:05.808Z,222.54
2023-04-15T01:37:05.771Z,221.46
2023-04-15T01:38:05.748Z,222.77
2023-04-15T01:39:05.752Z,222.67
2023-04-15T01:40:05.715Z,222.90
2023-04-15T01:41:05.705Z,222.33
2023-04-15T01:42:05.682Z,222.45
2023-04-15T01:43:05.677Z,222.69
2023-04-15T01:44:05.663Z,222.18
2023-04-15T01:45:05.648Z,221.85
2023-04-15T01:46:05.631Z,222.56
2023-04-15T01:47:05.635Z,222.33
2023-04-15T01:48:05.605Z,222.17
2023-04-15T01:49:05.590Z,221.40
2023-04-15T01:50:05.592Z,221.92
2023-04-15T01:51:05.590Z,222.53
2023-04-15T01:52:05.578Z,222.04
2023-04-15T01:53:05.571Z,221.65
2023-04-15T01:54:05.617Z,222.50
2023-04-15T01:55:05.634Z,222.08
2023-04-15T01:56:05.617Z,222.11
2023-04-15T01:57:05.622Z,221.92
2023-04-15T01:58:05.586Z,221.84
2023-04-15T01:59:05.583Z,221.67
2023-04-15T02:01:24.661Z,25.00
2023-04-15T02:02:24.678Z,25.00
2023-04-15T02:03:24.650Z,25.00
2023-04-15T02:04:24.595Z,25.00
2023-04-15T02:05:24.552Z,25.00
2023-04-15T02:06:24.517Z,27.27
2023-04-15T02:07:24.492Z,25.80
2023-04-15T02:08:24.471Z,25.22
2023-04-15T02:09:24.460Z,25.71
2023-04-15T02:10:24.433Z,25.23
2023-04-15T02:11:24.395Z,25.98
2023-04-15T02:12:24.383Z,25.85
2023-04-15T02:13:24.366Z,25.70
2023-04-15T02:14:24.338Z,26.23
2023-04-15T02:15:24.309Z,26.81
2023-04-15T02:16:24.313Z,26.41
2023-04-15T02:17:24.299Z,26.45
2023-04-15T02:18:24.269Z,25.94
2023-04-15T02:19:24.241Z,26.85
2023-04-15T02:20:24.218Z,27.11
2023-04-15T02:21:24.175Z,27.42
2023-04-15T02:22:24.156Z,27.35
2023-04-15T02:23:24.132Z,26.98
2023-04-15T02:24:24.105Z,26.76
2023-04-15T02:25:24.081Z,25.49
2023-04-15T02:26:24.050Z,26.12
2023-04-15T02:27:24.035Z,28.02
2023-04-15T02:28:24.008Z,26.28
2023-04-15T02:29:23.974Z,25.00
2023-04-15T02:30:23.947Z,26.19
2023-04-15T02:31:23.938Z,25.76
2023-04-15T02:32:23.951Z,28.07
2023-04-15T02:33:23.869Z,26.92
2023-04-15T02:34:23.868Z,25.46
2023-04-15T02:35:23.881Z,26.34
2023-04-15T02:36:23.942Z,26.43
2023-04-15T02:37:23.889Z,26.86
2023-04-15T02:38:23.892Z,25.42
2023-04-15T02:39:23.891Z,26.16
2023-04-15T02:40:23.902Z,26.33
2023-04-15T02:41:23.997Z,26.41
2023-04-15T02:42:23.922Z,26.51
2023-04-15T02:43:23.945Z,27.59
2023-04-15T02:44:23.937Z,27.80
2023-04-15T02:45:23.964Z,25.92
2023-04-15T02:46:24.058Z,27.67
2023-04-15T02:47:24.003Z,25.87
2023-04-15T02:48:24.012Z,27.55
2023-04-15T02:49:24.006Z,25.88
2023-04-15T02:50:24.006Z,25.02
2023-04-15T02:51:24.022Z,26.28
2023-04-15T02:52:24.025Z,26.46
2023-04-15T02:53:24.058Z,27.09
2023-04-15T02:54:24.030Z,27.27
2023-04-15T02:55:24.038Z,25.09
2023-04-15T02:56:24.053Z,26.02
2023-04-15T02:57:24.056Z,21.93
2023-04-15T02:58:24.060Z,25.18
2023-04-15T02:59:24.077Z,25.91
2023-04-15T03:00:24.069Z,26.23
2023-04-15T03:01:24.136Z,22.48
2023-04-15T03:02:24.197Z,25.39
2023-04-15T03:03:24.099Z,25.00
2023-04-15T03:04:24.041Z,24.98
2023-04-15T03:05:24.052Z,25.00
2023-04-15T03:06:24.046Z,25.28
2023-04-15T03:07:24.064Z,25.00
2023-04-15T03:08:24.084Z,25.00
2023-04-15T03:09:24.108Z,25.23
2023-04-15T03:10:24.137Z,25.19
2023-04-15T03:11:24.174Z,26.02
2023-04-15T03:12:24.203Z,25.26
2023-04-15T03:13:24.233Z,25.00
2023-04-15T03:14:24.266Z,25.00
2023-04-15T03:15:24.336Z,25.00
2023-04-15T03:16:24.354Z,26.57
2023-04-15T03:17:24.445Z,24.84
2023-04-15T03:18:24.437Z,27.15
2023-04-15T03:19:24.509Z,26.52
2023-04-15T03:20:24.563Z,25.00
2023-04-15T03:21:24.602Z,25.00
2023-04-15T03:22:24.654Z,26.91
2023-04-15T03:23:24.706Z,25.00
2023-04-15T03:24:24.783Z,27.58
2023-04-15T03:25:24.830Z,26.12
2023-04-15T03:26:24.878Z,26.40
2023-04-15T03:27:24.932Z,25.00
2023-04-15T03:28:24.994Z,28.11
2023-04-15T03:29:24.972Z,27.60
2023-04-15T03:30:24.971Z,18.33
2023-04-15T03:31:24.985Z,16.99
2023-04-15T03:32:24.937Z,11.42
2023-04-15T03:33:24.937Z,7.10
2023-04-15T03:34:24.902Z,25.00
2023-04-15T03:35:24.885Z,28.63
2023-04-15T03:36:24.862Z,28.45
2023-04-15T03:37:24.852Z,26.38
2023-04-15T03:38:24.846Z,25.00
2023-04-15T03:39:24.872Z,25.66
2023-04-15T03:40:24.906Z,27.80
2023-04-15T03:41:24.920Z,26.61
2023-04-15T03:42:24.958Z,27.99
2023-04-15T03:43:24.989Z,25.65
2023-04-15T03:44:25.015Z,27.30
2023-04-15T03:45:25.073Z,28.49
2023-04-15T03:46:25.177Z,25.63
2023-04-15T03:47:25.230Z,26.59
2023-04-15T03:48:25.232Z,27.00
2023-04-15T03:49:25.304Z,25.68
2023-04-15T03:50:25.373Z,28.29
2023-04-15T03:51:25.393Z,28.85
2023-04-15T03:52:25.427Z,25.00
2023-04-15T03:53:25.483Z,27.56
2023-04-15T03:54:25.553Z,28.56
2023-04-15T03:55:25.621Z,28.33
2023-04-15T03:56:25.656Z,32.43
2023-04-15T03:57:25.747Z,25.12
2023-04-15T03:58:25.806Z,27.96
2023-04-15T03:59:25.855Z,25.00
2023-04-15T04:00:25.906Z,27.56
2023-04-15T04:01:26.028Z,27.44
2023-04-15T04:02:26.139Z,29.13
2023-04-15T04:03:26.226Z,28.79
2023-04-15T04:04:26.159Z,32.14
2023-04-15T04:05:26.096Z,27.67
2023-04-15T04:06:26.089Z,30.42
2023-04-15T04:07:26.115Z,26.52
2023-04-15T04:08:26.114Z,25.00
2023-04-15T04:09:26.105Z,26.78
2023-04-15T04:10:26.222Z,25.00
2023-04-15T04:11:26.110Z,27.07
2023-04-15T04:12:26.115Z,26.70
2023-04-15T04:13:26.161Z,28.42
2023-04-15T04:14:26.188Z,25.79
2023-04-15T04:15:26.231Z,28.70
2023-04-15T04:16:26.270Z,27.16
2023-04-15T04:17:26.265Z,27.62
2023-04-15T04:18:26.253Z,25.06
2023-04-15T04:19:26.261Z,25.00
2023-04-15T04:20:26.282Z,25.00
2023-04-15T04:21:26.312Z,27.00
2023-04-15T04:22:26.318Z,25.00
2023-04-15T04:23:26.335Z,25.00
2023-04-15T04:24:26.328Z,27.71
2023-04-15T04:25:26.345Z,36.14
2023-04-15T04:26:26.355Z,31.14
2023-04-15T04:27:26.357Z,34.16
2023-04-15T04:28:26.398Z,35.72
2023-04-15T04:29:26.402Z,36.37
2023-04-15T04:30:26.404Z,36.01
2023-04-15T04:31:26.466Z,31.85
2023-04-15T04:32:26.547Z,34.27
2023-04-15T04:33:26.541Z,26.61
2023-04-15T04:34:26.565Z,27.02
2023-04-15T04:35:26.584Z,29.00
2023-04-15T04:36:26.623Z,26.01
2023-04-15T04:37:26.642Z,30.32
2023-04-15T04:38:26.647Z,27.68
2023-04-15T04:39:26.653Z,28.99
2023-04-15T04:40:26.682Z,30.52
2023-04-15T04:41:26.679Z,27.19
2023-04-15T04:42:26.699Z,25.00
2023-04-15T04:43:26.719Z,26.19
2023-04-15T04:44:26.727Z,26.01
2023-04-15T04:45:26.772Z,28.34
2023-04-15T04:46:26.756Z,30.61
2023-04-15T04:47:26.846Z,28.61
2023-04-15T04:48:26.768Z,31.62
2023-04-15T04:49:26.779Z,34.38
2023-04-15T04:50:26.781Z,31.66
2023-04-15T04:51:26.803Z,28.36
2023-04-15T04:52:26.831Z,32.11
2023-04-15T04:53:26.810Z,25.76
2023-04-15T04:54:26.816Z,29.02
2023-04-15T04:55:26.840Z,28.52
2023-04-15T04:56:26.847Z,27.18
2023-04-15T04:57:26.878Z,24.23
2023-04-15T04:58:26.882Z,29.57
2023-04-15T04:59:26.902Z,26.34
2023-04-15T05:00:26.918Z,30.00
2023-04-15T05:01:26.984Z,30.04
2023-04-15T05:02:27.028Z,29.37
2023-04-15T05:03:27.014Z,30.84
2023-04-15T05:04:26.901Z,28.86
2023-04-15T05:05:26.895Z,36.48
2023-04-15T05:06:26.894Z,28.45
2023-04-15T05:07:26.895Z,27.11
2023-04-15T05:08:26.890Z,31.93
2023-04-15T05:09:26.903Z,26.87
2023-04-15T05:10:26.895Z,27.47
2023-04-15T05:11:26.925Z,31.45
2023-04-15T05:12:26.893Z,33.82
2023-04-15T05:13:26.896Z,34.53
2023-04-15T05:14:26.883Z,36.49
2023-04-15T05:15:26.886Z,37.84
2023-04-15T05:16:26.889Z,38.28
2023-04-15T05:17:26.914Z,39.20
2023-04-15T05:18:26.880Z,38.35
2023-04-15T05:19:26.891Z,40.13
2023-04-15T05:20:26.888Z,44.34
2023-04-15T05:21:26.886Z,38.54
2023-04-15T05:22:26.904Z,41.25
2023-04-15T05:23:26.880Z,45.81
2023-04-15T05:24:26.886Z,50.66
2023-04-15T05:25:26.895Z,57.55
2023-04-15T05:26:26.888Z,59.07
2023-04-15T05:27:26.890Z,65.39
2023-04-15T05:28:26.874Z,67.53
2023-04-15T05:29:26.876Z,66.79
2023-04-15T05:30:26.868Z,73.07
2023-04-15T05:31:26.932Z,67.93
2023-04-15T05:32:26.877Z,72.42
2023-04-15T05:33:26.878Z,75.27
2023-04-15T05:34:26.867Z,73.32
2023-04-15T05:35:26.885Z,75.17
2023-04-15T05:36:26.879Z,72.99
2023-04-15T05:37:26.876Z,71.49
2023-04-15T05:38:26.885Z,67.06
2023-04-15T05:39:26.890Z,68.72
2023-04-15T05:40:26.884Z,68.63
2023-04-15T05:41:26.883Z,70.42
2023-04-15T05:42:26.886Z,65.67
2023-04-15T05:43:26.882Z,68.58
2023-04-15T05:44:26.922Z,62.84
2023-04-15T05:45:26.893Z,64.85
2023-04-15T05:46:26.940Z,59.88
2023-04-15T05:48:46.067Z,25.00
2023-04-15T05:49:46.040Z,25.00
2023-04-15T05:50:46.040Z,25.00
2023-04-15T05:51:46.019Z,25.00
2023-04-15T05:52:46.007Z,25.00
2023-04-15T05:53:46.031Z,27.46
2023-04-15T05:54:45.988Z,25.84
2023-04-15T05:55:45.978Z,27.08
2023-04-15T05:56:45.976Z,25.00
2023-04-15T05:57:45.956Z,32.04
2023-04-15T05:58:45.948Z,29.42
2023-04-15T05:59:45.950Z,27.43
2023-04-15T06:00:45.928Z,26.88
2023-04-15T06:01:45.947Z,25.20
2023-04-15T06:02:46.130Z,27.28
2023-04-15T06:03:46.064Z,32.66
2023-04-15T06:04:45.963Z,34.34
2023-04-15T06:05:45.894Z,28.72
2023-04-15T06:06:45.900Z,28.51
2023-04-15T06:07:48.324Z,30.40
2023-04-15T06:08:46.152Z,28.26
2023-04-15T06:09:46.158Z,27.10
2023-04-15T06:10:46.180Z,33.05
2023-04-15T06:11:46.215Z,29.42
2023-04-15T06:12:46.245Z,28.44
2023-04-15T06:13:46.290Z,26.66
2023-04-15T06:14:46.292Z,25.53
2023-04-15T06:15:46.317Z,31.08
2023-04-15T06:16:46.357Z,25.00
2023-04-15T06:17:46.428Z,27.25
2023-04-15T06:18:46.395Z,26.33
2023-04-15T06:19:46.427Z,26.90
2023-04-15T06:20:46.445Z,28.32
2023-04-15T06:21:46.469Z,28.17
2023-04-15T06:22:46.480Z,27.16
2023-04-15T06:23:46.500Z,30.86
2023-04-15T06:24:46.529Z,28.55
2023-04-15T06:25:46.551Z,25.38
2023-04-15T06:26:46.579Z,29.05
2023-04-15T06:27:46.607Z,28.94
2023-04-15T06:28:46.654Z,30.44
2023-04-15T06:29:46.659Z,32.35
2023-04-15T06:30:46.690Z,31.65
2023-04-15T06:31:46.739Z,30.67
2023-04-15T06:32:46.763Z,26.77
2023-04-15T06:33:46.724Z,26.88
2023-04-15T06:34:46.723Z,26.08
2023-04-15T06:35:46.738Z,19.70
2023-04-15T06:36:46.725Z,5.60
2023-04-15T06:37:46.723Z,0.00
2023-04-15T06:38:46.708Z,21.49
2023-04-15T06:39:46.717Z,28.67
2023-04-15T06:40:46.707Z,25.40
2023-04-15T06:41:46.705Z,25.00
2023-04-15T06:42:46.693Z,31.81
2023-04-15T06:43:46.690Z,27.96
2023-04-15T06:44:46.683Z,29.71
2023-04-15T06:45:46.712Z,25.39
2023-04-15T06:46:46.678Z,27.99
2023-04-15T06:47:46.747Z,24.39
2023-04-15T06:48:46.652Z,26.23
2023-04-15T06:49:46.639Z,25.00
2023-04-15T06:50:46.636Z,32.28
2023-04-15T06:51:46.662Z,25.00
2023-04-15T06:52:46.644Z,25.00
2023-04-15T06:53:46.605Z,26.28
2023-04-15T06:54:46.594Z,29.14
2023-04-15T06:55:46.628Z,25.19
2023-04-15T06:56:46.626Z,29.29
2023-04-15T06:57:46.646Z,31.85
2023-04-15T06:58:46.668Z,25.00
2023-04-15T06:59:46.698Z,29.55
2023-04-15T07:00:46.725Z,25.00
2023-04-15T07:01:46.757Z,24.79
2023-04-15T07:02:46.888Z,31.09
2023-04-15T07:03:46.793Z,26.26
2023-04-15T07:04:46.806Z,32.50
2023-04-15T07:05:46.812Z,29.70
2023-04-15T07:06:46.839Z,26.64
2023-04-15T07:07:46.844Z,36.11
2023-04-15T07:08:46.857Z,25.00
2023-04-15T07:09:46.872Z,25.00
2023-04-15T07:10:46.888Z,26.51
2023-04-15T07:11:46.912Z,28.54
2023-04-15T07:12:46.912Z,30.42
2023-04-15T07:13:46.926Z,24.10
2023-04-15T07:14:46.947Z,26.87
2023-04-15T07:15:46.962Z,27.33
2023-04-15T07:16:47.042Z,28.72
2023-04-15T07:17:47.038Z,26.12
2023-04-15T07:18:47.018Z,27.60
2023-04-15T07:19:47.009Z,25.00
2023-04-15T07:20:47.018Z,25.00
2023-04-15T07:21:47.052Z,26.24
2023-04-15T07:22:47.042Z,25.05
2023-04-15T07:23:47.054Z,26.87
2023-04-15T07:24:47.069Z,23.33
2023-04-15T07:25:47.082Z,25.00
2023-04-15T07:26:47.104Z,26.28
2023-04-15T07:27:47.110Z,25.00
2023-04-15T07:28:47.108Z,28.57
2023-04-15T07:29:47.109Z,25.00
2023-04-15T07:30:47.161Z,26.41
2023-04-15T07:31:47.112Z,28.86
2023-04-15T07:32:47.192Z,39.83
2023-04-15T07:33:47.135Z,40.32
2023-04-15T07:34:47.163Z,48.94
2023-04-15T07:35:47.144Z,45.32
2023-04-15T07:36:47.146Z,38.98
2023-04-15T07:37:47.160Z,40.71
2023-04-15T07:38:47.137Z,37.63
2023-04-15T07:39:47.154Z,37.25
2023-04-15T07:40:47.171Z,45.52
2023-04-15T07:41:47.165Z,38.53
2023-04-15T07:42:47.185Z,32.65
2023-04-15T07:43:47.170Z,31.70
2023-04-15T07:44:47.176Z,31.39
2023-04-15T07:45:47.198Z,34.51
2023-04-15T07:46:47.177Z,31.00
2023-04-15T07:47:47.278Z,34.02
2023-04-15T07:48:47.171Z,36.15
2023-04-15T07:49:47.151Z,47.36
2023-04-15T07:50:47.138Z,48.66
2023-04-15T07:51:47.134Z,39.92
2023-04-15T07:52:47.123Z,33.31
2023-04-15T07:53:47.109Z,34.97
2023-04-15T07:54:47.102Z,28.48
2023-04-15T07:55:47.094Z,26.61
2023-04-15T07:56:47.079Z,33.95
2023-04-15T07:57:47.091Z,27.99
2023-04-15T07:58:47.066Z,25.62
2023-04-15T07:59:47.054Z,25.75
2023-04-15T08:00:47.066Z,28.10
2023-04-15T08:01:47.079Z,32.98
2023-04-15T08:02:47.199Z,26.54
2023-04-15T08:03:47.120Z,25.19
2023-04-15T08:04:47.097Z,25.00
2023-04-15T08:05:46.992Z,28.57
2023-04-15T08:06:46.993Z,28.06
2023-04-15T08:07:46.989Z,27.31
2023-04-15T08:08:46.965Z,41.10
2023-04-15T08:09:46.963Z,34.56
2023-04-15T08:10:46.943Z,39.57
2023-04-15T08:11:46.934Z,33.09
2023-04-15T08:12:46.918Z,29.96
2023-04-15T08:13:46.912Z,28.61
2023-04-15T08:14:46.954Z,25.00
2023-04-15T08:15:46.919Z,25.00
2023-04-15T08:16:46.909Z,25.00
2023-04-15T08:17:46.968Z,27.19
2023-04-15T08:18:46.921Z,25.00
2023-04-15T08:19:46.922Z,18.60
2023-04-15T08:20:46.912Z,12.47
2023-04-15T08:21:46.932Z,6.69
2023-04-15T08:22:46.899Z,9.84
2023-04-15T08:23:46.880Z,10.82
2023-04-15T08:24:46.881Z,10.28
2023-04-15T08:25:46.866Z,17.41
2023-04-15T08:26:46.883Z,20.37
2023-04-15T08:27:46.853Z,15.27
2023-04-15T08:28:46.835Z,15.42
2023-04-15T08:29:46.823Z,27.75
2023-04-15T08:30:46.815Z,25.50
2023-04-15T08:31:46.850Z,25.47
2023-04-15T08:32:46.931Z,33.94
2023-04-15T08:33:46.790Z,33.35
2023-04-15T08:34:46.767Z,30.18
2023-04-15T08:35:46.750Z,29.64
2023-04-15T08:36:46.737Z,34.92
2023-04-15T08:37:46.738Z,35.50
2023-04-15T08:38:46.716Z,34.15
2023-04-15T08:39:46.709Z,42.29
2023-04-15T08:40:46.689Z,34.17
2023-04-15T08:41:46.672Z,28.79
2023-04-15T08:42:46.663Z,34.96
2023-04-15T08:43:46.634Z,31.24
2023-04-15T08:44:46.644Z,30.94
2023-04-15T08:45:46.612Z,34.63
2023-04-15T08:46:46.636Z,45.26
2023-04-15T08:47:46.592Z,40.40
2023-04-15T08:48:46.563Z,46.94
2023-04-15T08:49:46.557Z,43.93
2023-04-15T08:50:46.533Z,47.14
2023-04-15T08:51:46.526Z,47.96
2023-04-15T08:52:46.497Z,49.48
2023-04-15T08:53:46.511Z,54.86
2023-04-15T08:54:46.466Z,63.98
2023-04-15T08:55:46.446Z,64.09
2023-04-15T08:56:46.481Z,60.13
2023-04-15T08:57:46.426Z,70.01
2023-04-15T08:58:46.414Z,69.54
2023-04-15T08:59:46.434Z,101.63
2023-04-15T09:00:46.428Z,125.01
2023-04-15T09:01:46.446Z,162.34
2023-04-15T09:02:46.437Z,198.30
2023-04-15T09:03:46.457Z,222.44
2023-04-15T09:04:46.338Z,253.72
2023-04-15T09:05:46.337Z,252.65
2023-04-15T09:06:46.386Z,249.61
2023-04-15T09:07:46.510Z,250.00
2023-04-15T09:08:46.476Z,250.00
2023-04-15T09:09:46.492Z,250.12
2023-04-15T09:10:46.509Z,250.00
2023-04-15T09:11:46.535Z,250.00
2023-04-15T09:12:46.554Z,250.00
2023-04-15T09:13:46.576Z,249.73
2023-04-15T09:14:46.593Z,250.00
2023-04-15T09:15:46.616Z,250.00
2023-04-15T09:16:48.636Z,250.00
2023-04-15T09:17:46.646Z,250.23
2023-04-15T09:18:46.589Z,250.00
2023-04-15T09:19:46.609Z,249.82
2023-04-15T09:20:46.542Z,249.84
2023-04-15T09:21:46.517Z,250.00
2023-04-15T09:22:46.500Z,249.95
2023-04-15T09:23:46.485Z,250.00
2023-04-15T09:24:46.451Z,249.93
2023-04-15T09:25:46.415Z,249.91
2023-04-15T09:26:46.387Z,249.73
2023-04-15T09:27:46.358Z,250.00
2023-04-15T09:28:46.340Z,250.00
2023-04-15T09:29:46.312Z,249.90
2023-04-15T09:30:46.637Z,249.93
2023-04-15T09:31:46.256Z,249.92
2023-04-15T09:32:46.274Z,249.73
2023-04-15T09:33:46.194Z,250.00
2023-04-15T09:34:46.158Z,250.00
2023-04-15T09:35:46.131Z,250.00
2023-04-15T09:36:46.092Z,250.00
2023-04-15T09:37:46.073Z,250.00
2023-04-15T09:38:46.029Z,249.55
2023-04-15T09:39:45.999Z,249.91
2023-04-15T09:40:45.961Z,249.64
2023-04-15T09:41:45.946Z,250.00
2023-04-15T09:42:45.909Z,250.00
2023-04-15T09:43:45.889Z,249.69
2023-04-15T09:44:45.856Z,249.55
2023-04-15T09:45:45.841Z,249.83
2023-04-15T09:46:45.789Z,250.00
2023-04-15T09:47:45.782Z,250.00
2023-04-15T09:48:45.721Z,249.67
2023-04-15T09:49:45.748Z,249.80
2023-04-15T09:50:45.654Z,250.19
2023-04-15T09:51:54.368Z,251.33
2023-04-15T09:52:46.591Z,249.93
2023-04-15T09:53:45.557Z,250.76
2023-04-15T09:54:45.517Z,249.99
2023-04-15T09:55:45.485Z,251.19
2023-04-15T09:56:45.473Z,252.98
2023-04-15T09:57:45.425Z,256.29
2023-04-15T09:58:45.388Z,261.10
2023-04-15T09:59:45.361Z,252.70
2023-04-15T10:00:45.332Z,249.53
2023-04-15T10:01:45.356Z,250.00
2023-04-15T10:02:45.386Z,248.96
2023-04-15T10:03:45.310Z,248.89
2023-04-15T10:04:45.191Z,249.15
2023-04-15T10:05:45.237Z,250.00
2023-04-15T10:06:45.160Z,250.00
2023-04-15T10:07:45.086Z,249.24
2023-04-15T10:08:45.048Z,249.77
2023-04-15T10:09:45.015Z,249.87
2023-04-15T10:10:44.979Z,250.15
2023-04-15T10:11:44.927Z,250.77
2023-04-15T10:12:44.887Z,251.86
2023-04-15T10:13:44.852Z,252.13
2023-04-15T10:14:44.800Z,248.70
2023-04-15T10:15:44.797Z,249.37
2023-04-15T10:16:44.718Z,248.53
2023-04-15T10:17:44.752Z,249.43
2023-04-15T10:18:44.631Z,249.34
2023-04-15T10:19:44.604Z,249.06
2023-04-15T10:20:44.565Z,248.56
2023-04-15T10:21:44.525Z,249.98
2023-04-15T10:22:44.484Z,249.18
2023-04-15T10:23:44.451Z,248.82
2023-04-15T10:24:44.430Z,248.92
2023-04-15T10:25:44.381Z,249.36
2023-04-15T10:26:44.340Z,249.79
2023-04-15T10:27:44.309Z,249.58
2023-04-15T10:28:44.251Z,249.14
2023-04-15T10:29:44.218Z,249.50
2023-04-15T10:30:44.167Z,249.61
2023-04-15T10:31:44.268Z,249.67
2023-04-15T10:32:44.107Z,249.22
2023-04-15T10:33:44.042Z,249.22
2023-04-15T10:34:44.011Z,249.28
2023-04-15T10:35:43.968Z,249.45
2023-04-15T10:36:43.920Z,249.63
2023-04-15T10:37:43.879Z,249.75
2023-04-15T10:38:43.841Z,249.94
2023-04-15T10:39:43.804Z,249.19
2023-04-15T10:40:43.745Z,250.00
2023-04-15T10:41:43.703Z,249.23
2023-04-15T10:42:43.657Z,249.47
2023-04-15T10:43:43.615Z,248.64
2023-04-15T10:44:43.575Z,249.26
2023-04-15T10:45:43.526Z,249.71
2023-04-15T10:46:43.553Z,249.34
2023-04-15T10:47:43.480Z,249.16
2023-04-15T10:48:43.403Z,249.62
2023-04-15T10:49:43.365Z,248.90
2023-04-15T10:50:43.367Z,249.19
2023-04-15T10:51:43.369Z,247.74
2023-04-15T10:52:43.381Z,250.00
2023-04-15T10:53:43.398Z,249.34
2023-04-15T10:54:43.441Z,248.81
2023-04-15T10:55:43.438Z,248.61
2023-04-15T10:56:43.442Z,249.30
2023-04-15T10:57:43.487Z,249.35
2023-04-15T10:58:43.489Z,249.10
2023-04-15T10:59:43.512Z,248.81
2023-04-15T11:00:43.536Z,249.12
2023-04-15T11:01:43.591Z,248.96
2023-04-15T11:02:43.666Z,249.03
2023-04-15T11:03:43.665Z,248.98
2023-04-15T11:04:43.479Z,248.77
2023-04-15T11:05:43.402Z,248.92
2023-04-15T11:06:43.356Z,249.19
2023-04-15T11:07:43.313Z,249.03
2023-04-15T11:08:43.276Z,249.14
2023-04-15T11:09:43.229Z,249.04
2023-04-15T11:10:43.187Z,249.12
2023-04-15T11:11:44.381Z,249.50
2023-04-15T11:12:43.099Z,249.07
2023-04-15T11:13:43.064Z,249.16
2023-04-15T11:14:43.053Z,249.66
2023-04-15T11:15:43.009Z,250.42
2023-04-15T11:16:42.962Z,250.07
2023-04-15T11:17:44.126Z,249.73
2023-04-15T11:18:42.859Z,250.00
2023-04-15T11:19:42.822Z,247.71
2023-04-15T11:20:42.801Z,248.77
2023-04-15T11:21:42.733Z,248.05
2023-04-15T11:22:42.688Z,247.56
2023-04-15T11:23:42.655Z,248.61
2023-04-15T11:24:42.616Z,247.43
2023-04-15T11:25:42.566Z,248.09
2023-04-15T11:26:42.526Z,248.16
2023-04-15T11:27:42.489Z,248.70
2023-04-15T11:28:42.446Z,249.16
2023-04-15T11:29:42.411Z,248.45
2023-04-15T11:30:42.384Z,247.96
2023-04-15T11:31:42.389Z,249.00
2023-04-15T11:32:42.350Z,249.24
2023-04-15T11:33:42.247Z,248.84
2023-04-15T11:34:42.239Z,248.45
2023-04-15T11:35:42.184Z,248.22
2023-04-15T11:36:42.128Z,248.57
2023-04-15T11:37:42.079Z,248.95
2023-04-15T11:38:42.031Z,250.00
2023-04-15T11:39:41.990Z,247.94
2023-04-15T11:40:43.310Z,248.66
2023-04-15T11:41:42.146Z,248.02
2023-04-15T11:42:49.600Z,247.65
2023-04-15T11:43:43.137Z,247.71
2023-04-15T11:44:42.088Z,247.67
2023-04-15T11:45:42.076Z,247.66
2023-04-15T11:46:43.452Z,247.39
2023-04-15T11:47:42.006Z,247.73
2023-04-15T11:48:41.900Z,247.83
2023-04-15T11:49:41.862Z,248.08
2023-04-15T11:50:41.821Z,247.72
2023-04-15T11:51:41.788Z,248.16
2023-04-15T11:52:41.731Z,247.47
2023-04-15T11:53:41.692Z,247.09
2023-04-15T11:54:41.634Z,247.71
2023-04-15T11:55:41.597Z,247.57
2023-04-15T11:56:41.553Z,247.73
2023-04-15T11:57:41.560Z,247.77
2023-04-15T11:58:41.588Z,246.56
2023-04-15T11:59:45.433Z,247.64
2023-04-15T12:00:41.580Z,247.73
2023-04-15T12:01:41.526Z,247.84
2023-04-15T12:02:41.565Z,248.16
2023-04-15T12:03:41.760Z,248.93
2023-04-15T12:04:41.532Z,248.91
2023-04-15T12:05:41.370Z,247.85
2023-04-15T12:06:41.377Z,247.96
2023-04-15T12:07:41.294Z,248.21
2023-04-15T12:08:41.249Z,248.38
2023-04-15T12:09:41.239Z,247.36
2023-04-15T12:10:41.177Z,249.09
2023-04-15T12:11:41.157Z,249.07
2023-04-15T12:12:41.098Z,246.70
2023-04-15T12:13:41.063Z,248.44
2023-04-15T12:14:41.019Z,248.25
2023-04-15T12:15:40.997Z,247.84
2023-04-15T12:16:49.694Z,248.18
2023-04-15T12:17:51.570Z,248.27
2023-04-15T12:18:41.864Z,248.30
2023-04-15T12:19:40.810Z,248.52
2023-04-15T12:20:40.805Z,249.14
2023-04-15T12:21:40.736Z,248.81
2023-04-15T12:22:40.709Z,248.80
2023-04-15T12:23:40.656Z,250.00
2023-04-15T12:24:40.661Z,250.06
2023-04-15T12:25:40.569Z,250.04
2023-04-15T12:26:40.516Z,250.07
2023-04-15T12:27:40.477Z,248.67
2023-04-15T12:28:40.425Z,248.97
2023-04-15T12:29:40.394Z,249.23
2023-04-15T12:30:40.348Z,248.61
2023-04-15T12:31:40.435Z,248.57
2023-04-15T12:32:42.234Z,248.94
2023-04-15T12:33:40.205Z,249.44
2023-04-15T12:34:40.202Z,247.19
2023-04-15T12:35:40.105Z,246.89
2023-04-15T12:36:40.058Z,247.11
2023-04-15T12:37:40.003Z,246.81
2023-04-15T12:38:39.954Z,246.67
2023-04-15T12:39:39.965Z,247.47
2023-04-15T12:40:39.873Z,247.17
2023-04-15T12:41:39.824Z,247.38
2023-04-15T12:42:39.774Z,247.23
2023-04-15T12:43:39.733Z,247.61